Time;durP1;ratioP1;P1;durP2;ratioP2;P2;SDS_P1;SDS_P2;PMS_P1;PMS_P2;Temp;Humidity;BMP_temperature;BMP_pressure;BME280_temperature;BME280_humidity;BME280_pressure;Samples;Min_cycle;Max_cycle;Signal;HPM_P1;HPM_P2
2023/03/18 00:01:03;;;;;;;7.43;4.93;;;;;;;11.90;91.19;100773.31;5110303;28;20055;-36
2023/03/18 00:03:33;;;;;;;7.18;4.53;;;;;;;11.85;91.57;100771.34;5110094;28;20039;-36
2023/03/18 00:06:19;;;;;;;8.10;4.15;;;;;;;11.84;91.44;100764.28;5110862;28;20078;-36
2023/03/18 00:08:46;;;;;;;8.43;5.22;;;;;;;11.82;92.25;100763.72;5109967;28;20027;-36
2023/03/18 00:11:13;;;;;;;7.43;4.65;;;;;;;11.77;91.84;100750.84;5110505;28;20107;-36
2023/03/18 00:13:40;;;;;;;9.02;5.22;;;;;;;11.81;92.15;100754.72;5097879;28;20488;-36
2023/03/18 00:16:09;;;;;;;8.38;5.20;;;;;;;11.83;92.31;100752.63;5096222;28;20024;-36
2023/03/18 00:18:34;;;;;;;7.93;4.97;;;;;;;11.79;92.10;100746.00;5096605;28;20457;-36
2023/03/18 00:21:00;;;;;;;7.10;5.18;;;;;;;11.81;92.77;100762.84;5097214;28;20035;-36
2023/03/18 00:23:27;;;;;;;7.43;4.90;;;;;;;11.79;92.94;100770.38;5096066;28;20107;-36
2023/03/18 00:25:55;;;;;;;9.13;4.72;;;;;;;11.82;92.79;100769.94;5096053;28;20024;-36
2023/03/18 00:28:21;;;;;;;8.88;4.72;;;;;;;11.78;93.34;100767.94;5096084;28;20052;-36
2023/03/18 00:30:48;;;;;;;8.70;4.93;;;;;;;11.75;93.50;100771.09;5097141;28;20435;-36
2023/03/18 00:33:15;;;;;;;9.95;5.35;;;;;;;11.72;93.44;100766.19;5096176;28;20052;-36
2023/03/18 00:35:41;;;;;;;10.95;6.00;;;;;;;11.75;93.51;100779.22;5096492;28;20035;-36
2023/03/18 00:38:08;;;;;;;6.68;4.63;;;;;;;11.73;93.76;100773.25;5095786;28;20027;-36
2023/03/18 00:40:52;;;;;;;8.48;4.93;;;;;;;11.69;94.10;100782.91;5095999;28;20032;-36
2023/03/18 00:43:22;;;;;;;8.43;4.70;;;;;;;11.67;94.72;100785.88;5096032;28;20439;-36
2023/03/18 00:45:50;;;;;;;7.57;5.22;;;;;;;11.67;94.33;100787.75;5095948;28;20028;-36
2023/03/18 00:48:16;;;;;;;10.52;4.68;;;;;;;11.72;94.66;100787.84;5096177;28;20025;-36
2023/03/18 00:50:43;;;;;;;7.95;4.50;;;;;;;11.60;94.54;100785.16;5095906;28;20116;-36
2023/03/18 00:53:10;;;;;;;8.50;5.47;;;;;;;11.59;94.77;100773.50;5095533;28;20026;-36
2023/03/18 00:55:36;;;;;;;7.85;4.88;;;;;;;11.63;95.62;100781.97;5096113;28;20036;-36
2023/03/18 00:58:01;;;;;;;10.00;5.45;;;;;;;11.52;95.05;100770.13;5095455;28;20387;-36
2023/03/18 01:00:27;;;;;;;12.07;5.18;;;;;;;11.63;95.27;100783.88;5095465;28;20083;-36
2023/03/18 01:02:53;;;;;;;8.63;4.95;;;;;;;11.60;95.69;100782.44;5096206;28;20084;-37
2023/03/18 01:05:19;;;;;;;;;;;;;;;11.70;94.69;100796.19;5096904;28;20031;-37
2023/03/18 01:07:45;;;;;;;9.15;4.90;;;;;;;11.55;96.12;100777.75;5095527;28;20348;-37
2023/03/18 01:10:11;;;;;;;9.40;5.78;;;;;;;11.62;96.23;100782.22;5096085;28;20032;-37
2023/03/18 01:12:37;;;;;;;7.03;4.63;;;;;;;11.62;96.50;100791.19;5095414;28;20085;-37
2023/03/18 01:15:04;;;;;;;6.78;4.90;;;;;;;11.62;96.43;100795.78;5095545;28;20460;-37
2023/03/18 01:17:30;;;;;;;8.15;4.85;;;;;;;11.55;96.87;100787.75;5095002;28;20024;-37
2023/03/18 01:19:55;;;;;;;10.00;5.60;;;;;;;11.56;97.18;100794.81;5096188;28;20085;-37
2023/03/18 01:22:21;;;;;;;9.80;5.32;;;;;;;11.56;97.65;100789.41;5095188;28;20024;-37
2023/03/18 01:24:46;;;;;;;10.20;5.23;;;;;;;11.48;98.00;100785.19;5094517;28;20028;-37
2023/03/18 01:27:12;;;;;;;7.93;4.70;;;;;;;11.55;98.13;100790.47;5095217;28;20266;-37
2023/03/18 01:29:38;;;;;;;;;;;;;;;11.59;96.50;100791.66;5095903;28;20031;-37
2023/03/18 01:32:04;;;;;;;8.02;5.25;;;;;;;11.50;98.72;100785.75;5095110;28;19919;-37
2023/03/18 01:34:29;;;;;;;7.32;5.60;;;;;;;11.46;98.90;100771.06;5095126;28;20056;-37
2023/03/18 01:36:56;;;;;;;7.43;5.40;;;;;;;11.51;99.24;100782.00;5094632;28;20031;-37
2023/03/18 01:39:22;;;;;;;12.02;5.78;;;;;;;11.50;99.98;100788.47;5095474;28;20071;-37
2023/03/18 01:41:48;;;;;;;8.60;5.72;;;;;;;11.54;100.00;100794.25;5094801;28;20077;-37
2023/03/18 01:44:18;;;;;;;8.18;4.93;;;;;;;11.52;100.00;100793.69;5095127;28;20035;-37
2023/03/18 01:46:46;;;;;;;9.90;5.80;;;;;;;11.54;100.00;100795.06;5094587;28;20039;-37
2023/03/18 01:49:16;;;;;;;13.75;5.68;;;;;;;11.47;100.00;100786.25;5094755;28;20028;-37
2023/03/18 01:51:55;;;;;;;8.60;5.13;;;;;;;11.49;100.00;100780.59;5095310;28;20102;-37
2023/03/18 01:54:22;;;;;;;9.77;5.13;;;;;;;11.45;100.00;100787.53;5094707;28;20056;-37
2023/03/18 01:56:50;;;;;;;11.15;5.90;;;;;;;11.46;100.00;100786.47;5095437;28;20024;-37
2023/03/18 01:59:16;;;;;;;13.13;6.88;;;;;;;11.42;100.00;100780.75;5094533;28;20105;-37
2023/03/18 02:02:00;;;;;;;12.07;5.55;;;;;;;11.42;100.00;100786.16;5095016;28;20060;-37
2023/03/18 02:04:31;;;;;;;9.85;5.50;;;;;;;11.32;100.00;100769.66;5094877;28;20032;-37
2023/03/18 02:06:58;;;;;;;11.30;6.28;;;;;;;11.41;100.00;100784.47;5094716;28;20047;-37
2023/03/18 02:09:24;;;;;;;10.07;5.68;;;;;;;11.39;100.00;100785.81;5094418;28;20028;-37
2023/03/18 02:11:50;;;;;;;12.13;6.32;;;;;;;11.35;100.00;100783.56;5094108;28;20169;-37
2023/03/18 02:14:20;;;;;;;11.25;6.65;;;;;;;11.19;100.00;100767.22;5094510;28;20379;-37
2023/03/18 02:16:51;;;;;;;13.63;7.85;;;;;;;11.25;100.00;100782.50;5094636;28;20483;-37
2023/03/18 02:19:55;;;;;;;9.82;7.00;;;;;;;11.22;100.00;100791.09;5094258;28;20078;-37
2023/03/18 02:22:49;;;;;;;10.75;6.57;;;;;;;11.08;100.00;100780.53;5093230;28;20122;-37
2023/03/18 02:25:32;;;;;;;8.30;6.75;;;;;;;11.09;100.00;100787.59;5094683;28;20028;-36
2023/03/18 02:28:02;;;;;;;10.73;7.32;;;;;;;11.09;100.00;100798.41;5094182;28;20111;-37
2023/03/18 02:30:42;;;;;;;11.55;7.18;;;;;;;11.02;100.00;100797.69;5093985;28;20463;-35
2023/03/18 02:33:09;;;;;;;11.13;7.22;;;;;;;10.96;100.00;100800.53;5093712;28;20059;-36
2023/03/18 02:35:35;;;;;;;10.23;7.30;;;;;;;10.98;100.00;100807.34;5093527;28;20031;-36
2023/03/18 02:38:02;;;;;;;13.82;7.97;;;;;;;10.97;100.00;100808.38;5093996;28;20073;-36
2023/03/18 02:40:31;;;;;;;;;;;;;;;11.04;100.00;100811.81;5094357;28;20102;-36
2023/03/18 02:43:27;;;;;;;11.32;8.02;;;;;;;10.94;100.00;100806.19;5093837;28;19919;-36
2023/03/18 02:46:05;;;;;;;13.45;8.05;;;;;;;10.90;100.00;100818.50;5094699;28;20080;-36
2023/03/18 02:48:43;;;;;;;12.40;8.48;;;;;;;10.91;100.00;100816.63;5094382;28;20032;-36
2023/03/18 02:51:10;;;;;;;10.60;7.63;;;;;;;10.89;100.00;100816.88;5093449;28;20035;-36
2023/03/18 02:53:36;;;;;;;11.02;8.32;;;;;;;10.90;100.00;100817.69;5094294;28;20028;-36
2023/03/18 02:56:02;;;;;;;13.68;8.23;;;;;;;10.88;100.00;100833.31;5094269;28;20027;-36
2023/03/18 02:58:28;;;;;;;18.00;9.25;;;;;;;10.81;100.00;100819.91;5093861;28;20024;-36
2023/03/18 03:00:54;;;;;;;13.45;8.20;;;;;;;10.78;100.00;100818.50;5093189;28;20589;-35
2023/03/18 03:03:20;;;;;;;13.30;9.20;;;;;;;10.81;100.00;100828.84;5094091;28;20093;-36
2023/03/18 03:05:46;;;;;;;;;;;;;;;10.90;100.00;100836.63;5094560;28;20110;-36
2023/03/18 03:08:12;;;;;;;11.63;8.07;;;;;;;10.81;100.00;100833.44;5093977;28;20008;-36
2023/03/18 03:10:37;;;;;;;11.80;8.25;;;;;;;10.78;100.00;100842.84;5094456;28;20375;-36
2023/03/18 03:13:03;;;;;;;13.25;8.85;;;;;;;10.78;100.00;100842.00;5093529;28;20020;-36
2023/03/18 03:15:29;;;;;;;11.52;8.45;;;;;;;10.72;100.00;100845.66;5094072;28;20024;-41
2023/03/18 03:17:54;;;;;;;14.98;9.85;;;;;;;10.76;100.00;100852.25;5093498;28;20526;-36
2023/03/18 03:20:20;;;;;;;13.07;9.20;;;;;;;10.76;100.00;100854.94;5094015;28;20024;-36
2023/03/18 03:22:46;;;;;;;11.70;9.27;;;;;;;10.71;100.00;100855.66;5093482;28;20030;-36
2023/03/18 03:25:13;;;;;;;12.38;9.32;;;;;;;10.65;100.00;100853.88;5093783;28;20032;-36
2023/03/18 03:27:40;;;;;;;13.25;9.18;;;;;;;10.67;100.00;100853.63;5093388;28;20028;-36
2023/03/18 03:30:08;;;;;;;12.70;9.60;;;;;;;10.69;100.00;100856.94;5093119;28;20032;-36
2023/03/18 03:32:34;;;;;;;13.70;9.70;;;;;;;10.64;100.00;100854.09;5093440;28;20031;-36
2023/03/18 03:34:59;;;;;;;12.63;9.50;;;;;;;10.67;100.00;100853.63;5093667;28;20361;-36
2023/03/18 03:37:24;;;;;;;11.05;9.23;;;;;;;10.60;100.00;100842.94;5093010;28;20078;-36
2023/03/18 03:39:50;;;;;;;13.47;10.90;;;;;;;10.63;100.00;100853.25;5093672;28;20024;-36
2023/03/18 03:42:15;;;;;;;13.27;9.50;;;;;;;10.67;100.00;100865.28;5093200;28;20517;-36
2023/03/18 03:44:41;;;;;;;14.20;10.32;;;;;;;10.65;100.00;100863.88;5093570;28;20105;-36
2023/03/18 03:47:07;;;;;;;11.07;9.85;;;;;;;10.69;100.00;100867.75;5094165;28;20032;-36
2023/03/18 03:49:32;;;;;;;13.68;10.43;;;;;;;10.65;100.00;100859.28;5097663;28;20375;-36
2023/03/18 03:51:58;;;;;;;13.73;10.68;;;;;;;10.56;100.00;100847.97;5097045;28;20028;-36
2023/03/18 03:54:24;;;;;;;10.70;9.60;;;;;;;10.61;100.00;100855.38;5096795;28;20028;-36
2023/03/18 03:56:50;;;;;;;11.60;10.25;;;;;;;10.60;100.00;100863.75;5097448;28;20024;-36
2023/03/18 03:59:16;;;;;;;13.57;10.65;;;;;;;10.61;100.00;100849.97;5097439;28;20383;-36
2023/03/18 04:01:41;;;;;;;13.02;10.23;;;;;;;10.58;100.00;100862.06;5096954;28;20062;-36
2023/03/18 04:04:06;;;;;;;15.70;11.03;;;;;;;10.52;100.00;100851.34;5097383;28;20036;-36
2023/03/18 04:06:32;;;;;;;15.25;10.55;;;;;;;10.50;100.00;100857.00;5096483;28;20024;-36
2023/03/18 04:08:57;;;;;;;15.27;10.07;;;;;;;10.53;100.00;100856.53;5096460;28;20024;-36
2023/03/18 04:11:23;;;;;;;13.87;9.90;;;;;;;10.55;100.00;100861.72;5097314;28;20246;-36
2023/03/18 04:13:48;;;;;;;13.77;10.55;;;;;;;10.57;100.00;100865.00;5096971;28;20112;-36
2023/03/18 04:16:15;;;;;;;12.43;10.45;;;;;;;10.56;100.00;100866.06;5096937;28;20055;-36
2023/03/18 04:18:41;;;;;;;15.55;10.57;;;;;;;10.49;100.00;100863.47;5096516;28;20031;-36
2023/03/18 04:21:07;;;;;;;15.57;10.70;;;;;;;10.54;100.00;100860.91;5096726;28;20376;-36
2023/03/18 04:23:32;;;;;;;14.45;10.90;;;;;;;10.55;100.00;100869.84;5096179;28;20020;-36
2023/03/18 04:25:58;;;;;;;11.85;10.00;;;;;;;10.53;100.00;100869.22;5096718;28;20361;-36
2023/03/18 04:28:23;;;;;;;13.40;10.60;;;;;;;10.52;100.00;100865.69;5096092;28;20024;-36
2023/03/18 04:30:49;;;;;;;16.40;11.13;;;;;;;10.56;100.00;100866.88;5096577;28;20039;-36
2023/03/18 04:33:15;;;;;;;13.15;11.25;;;;;;;10.54;100.00;100870.88;5096206;28;20064;-36
2023/03/18 04:35:44;;;;;;;17.13;11.98;;;;;;;10.54;100.00;100865.44;5096792;28;20028;-36
2023/03/18 04:38:09;;;;;;;14.65;11.27;;;;;;;10.47;100.00;100865.56;5096427;28;20024;-36
2023/03/18 04:40:35;;;;;;;13.50;10.88;;;;;;;10.59;100.00;100884.53;5096911;28;20101;-35
2023/03/18 04:43:00;;;;;;;14.63;11.17;;;;;;;10.57;100.00;100881.22;5095993;28;20103;-36
2023/03/18 04:45:26;;;;;;;14.05;11.32;;;;;;;10.51;100.00;100872.16;5094806;28;20490;-36
2023/03/18 04:47:52;;;;;;;15.20;12.30;;;;;;;10.51;100.00;100874.88;5095985;28;20063;-36
2023/03/18 04:50:18;;;;;;;13.93;11.38;;;;;;;10.47;100.00;100872.84;5096231;28;20251;-36
2023/03/18 04:52:43;;;;;;;14.38;10.45;;;;;;;10.48;100.00;100878.03;5096142;28;20028;-36
2023/03/18 04:55:10;;;;;;;14.85;10.95;;;;;;;10.56;100.00;100890.41;5096677;28;20364;-36
2023/03/18 04:57:37;;;;;;;14.38;10.73;;;;;;;10.55;100.00;100895.00;5095649;28;20032;-36
2023/03/18 05:00:10;;;;;;;14.25;10.93;;;;;;;10.53;100.00;100893.56;5096145;28;20081;-36
2023/03/18 05:02:35;;;;;;;14.85;11.20;;;;;;;10.54;100.00;100889.78;5096115;28;20063;-36
2023/03/18 05:05:01;;;;;;;15.30;10.48;;;;;;;10.55;100.00;100892.28;5095931;28;20040;-36
2023/03/18 05:07:27;;;;;;;16.60;11.35;;;;;;;10.52;100.00;100898.13;5095291;28;20066;-36
2023/03/18 05:09:53;;;;;;;15.57;11.98;;;;;;;10.50;100.00;100897.56;5095911;28;20036;-36
2023/03/18 05:12:18;;;;;;;12.38;11.10;;;;;;;10.50;100.00;100900.25;5095970;28;20066;-35
2023/03/18 05:14:44;;;;;;;14.00;10.83;;;;;;;10.43;100.00;100901.38;5096052;28;20028;-36
2023/03/18 05:17:14;;;;;;;;;;;;;;;10.49;100.00;100909.44;5095718;28;20306;-36
2023/03/18 05:19:44;;;;;;;15.20;11.10;;;;;;;10.39;100.00;100894.78;5096203;28;19912;-35
2023/03/18 05:22:10;;;;;;;14.18;11.75;;;;;;;10.35;100.00;100889.03;5095189;28;20024;-36
2023/03/18 05:24:36;;;;;;;13.57;12.07;;;;;;;10.46;100.00;100911.75;5094003;28;20040;-36
2023/03/18 05:27:01;;;;;;;;;;;;;;;10.52;100.00;100908.13;5095879;28;20032;-36
2023/03/18 05:29:27;;;;;;;12.90;11.50;;;;;;;10.43;100.00;100899.50;5096038;28;20049;-36
2023/03/18 05:31:53;;;;;;;13.80;12.13;;;;;;;10.45;100.00;100912.81;5095060;28;20444;-36
2023/03/18 05:34:18;;;;;;;16.30;11.75;;;;;;;10.40;100.00;100896.47;5095072;28;20025;-36
2023/03/18 05:36:44;;;;;;;15.37;11.60;;;;;;;10.45;100.00;100897.41;5095342;28;20154;-36
2023/03/18 05:39:09;;;;;;;13.18;11.40;;;;;;;10.40;100.00;100893.75;5095220;28;20461;-36
2023/03/18 05:41:35;;;;;;;15.05;11.68;;;;;;;10.43;100.00;100899.50;5095154;28;20449;-37
2023/03/18 05:44:00;;;;;;;13.80;10.93;;;;;;;10.41;100.00;100887.28;5094024;28;20102;-36
2023/03/18 05:46:25;;;;;;;15.33;11.53;;;;;;;10.39;100.00;100889.38;5095078;28;20031;-36
2023/03/18 05:48:51;;;;;;;14.60;11.88;;;;;;;10.31;100.00;100888.66;5094322;28;20551;-37
2023/03/18 05:51:16;;;;;;;13.70;10.90;;;;;;;10.36;100.00;100906.91;5094887;28;20032;-36
2023/03/18 05:53:42;;;;;;;14.65;11.85;;;;;;;10.35;100.00;100913.38;5094562;28;20051;-36
2023/03/18 05:56:07;;;;;;;13.90;10.82;;;;;;;10.36;100.00;100917.72;5094856;28;20028;-36
2023/03/18 05:58:33;;;;;;;16.03;11.40;;;;;;;10.40;100.00;100928.91;5094165;28;20043;-36
2023/03/18 06:00:59;;;;;;;16.90;10.75;;;;;;;10.37;100.00;100934.75;5094077;28;20474;-36
2023/03/18 06:03:24;;;;;;;13.98;10.77;;;;;;;10.35;100.00;100932.28;5094848;28;20031;-36
2023/03/18 06:05:51;;;;;;;13.35;11.15;;;;;;;10.33;100.00;100934.38;5095068;28;20521;-36
2023/03/18 06:08:16;;;;;;;11.60;10.15;;;;;;;10.30;100.00;100932.13;5093481;28;20063;-36
2023/03/18 06:10:42;;;;;;;12.93;10.57;;;;;;;10.30;100.00;100938.38;5094521;28;20064;-36
2023/03/18 06:13:10;;;;;;;12.75;11.00;;;;;;;10.28;100.00;100939.63;5094887;28;20508;-36
2023/03/18 06:15:36;;;;;;;14.27;11.27;;;;;;;10.30;100.00;100941.06;5095439;28;20038;-36
2023/03/18 06:18:03;;;;;;;;;;;;;;;10.35;100.00;100945.78;5094382;28;20475;-36
2023/03/18 06:20:29;;;;;;;11.88;10.63;;;;;;;10.27;100.00;100933.41;5094727;28;19908;-36
2023/03/18 06:22:54;;;;;;;14.73;11.13;;;;;;;10.25;100.00;100937.41;5094189;28;20024;-36
2023/03/18 06:25:20;;;;;;;12.07;10.77;;;;;;;10.24;100.00;100941.94;5093850;28;20024;-36
2023/03/18 06:27:46;;;;;;;;;;;;;;;10.31;100.00;100941.91;5094495;28;20657;-36
2023/03/18 06:30:13;;;;;;;13.05;9.88;;;;;;;10.23;100.00;100942.16;5094374;28;19908;-36
2023/03/18 06:32:39;;;;;;;12.52;10.32;;;;;;;10.17;100.00;100940.38;5094033;28;20391;-37
2023/03/18 06:35:04;;;;;;;;;;;;;;;10.26;100.00;100941.75;5094408;28;20039;-36
2023/03/18 06:37:30;;;;;;;12.07;10.68;;;;;;;10.14;100.00;100933.53;5093594;28;19908;-36
2023/03/18 06:39:55;;;;;;;13.23;10.37;;;;;;;10.11;100.00;100927.78;5093993;28;20036;-36
2023/03/18 06:42:20;;;;;;;12.50;10.37;;;;;;;10.23;100.00;100945.69;5094392;28;20028;-36
2023/03/18 06:44:49;;;;;;;12.20;10.87;;;;;;;10.23;100.00;100944.88;5094198;28;20024;-36
2023/03/18 06:47:20;;;;;;;13.30;11.23;;;;;;;10.26;100.00;100949.84;5094308;28;20266;-36
2023/03/18 06:49:46;;;;;;;14.25;11.15;;;;;;;10.27;100.00;100951.50;5093500;28;20032;-35
2023/03/18 06:52:13;;;;;;;12.73;11.23;;;;;;;10.15;100.00;100928.94;5093717;28;20030;-35
2023/03/18 06:54:39;;;;;;;;;;;;;;;10.41;100.00;100954.88;5093857;28;20024;-36
2023/03/18 06:57:05;;;;;;;14.43;11.48;;;;;;;10.27;100.00;100930.69;5093616;28;19908;-36
2023/03/18 06:59:30;;;;;;;11.60;10.40;;;;;;;10.44;100.00;100962.50;5094200;28;20024;-36
2023/03/18 07:01:56;;;;;;;12.48;10.30;;;;;;;10.46;100.00;100955.03;5093637;28;20071;-36
2023/03/18 07:04:22;;;;;;;12.27;10.25;;;;;;;10.58;100.00;100975.63;5093727;28;20422;-37
2023/03/18 07:06:48;;;;;;;10.48;9.38;;;;;;;10.63;100.00;100971.44;5093228;28;20106;-37
2023/03/18 07:09:14;;;;;;;;;;;;;;;10.71;100.00;100976.53;5094642;28;20368;-36
2023/03/18 07:11:39;;;;;;;13.50;10.02;;;;;;;10.69;100.00;100975.94;5094132;28;19919;-37
2023/03/18 07:14:05;;;;;;;11.30;8.53;;;;;;;10.66;100.00;100960.97;5094478;28;20544;-36
2023/03/18 07:16:30;;;;;;;10.00;9.00;;;;;;;10.78;100.00;100977.25;5093819;28;20024;-37
2023/03/18 07:18:57;;;;;;;11.48;8.65;;;;;;;10.74;100.00;100974.19;5093504;28;20024;-37
2023/03/18 07:21:23;;;;;;;9.82;8.18;;;;;;;10.90;100.00;100988.13;5093372;28;20024;-37
2023/03/18 07:23:49;;;;;;;10.05;8.07;;;;;;;10.91;100.00;100990.59;5096399;28;20016;-37
2023/03/18 07:26:14;;;;;;;11.45;8.82;;;;;;;10.95;100.00;100990.97;5098131;28;20349;-36
2023/03/18 07:28:40;;;;;;;10.45;9.00;;;;;;;10.97;100.00;100989.69;5097769;28;20107;-37
2023/03/18 07:31:06;;;;;;;10.38;8.80;;;;;;;11.01;100.00;100993.56;5097466;28;20039;-37
2023/03/18 07:33:32;;;;;;;11.68;9.02;;;;;;;11.07;100.00;101000.78;5097909;28;20036;-36
2023/03/18 07:35:57;;;;;;;14.60;9.98;;;;;;;11.08;100.00;100997.03;5098243;28;20077;-37
2023/03/18 07:38:23;;;;;;;10.80;9.27;;;;;;;11.08;100.00;100996.22;5097270;28;20024;-37
2023/03/18 07:40:48;;;;;;;11.25;10.15;;;;;;;11.11;100.00;101000.31;5097185;28;20065;-36
2023/03/18 07:43:14;;;;;;;11.23;10.10;;;;;;;11.14;100.00;101006.09;5097474;28;20028;-37
2023/03/18 07:45:39;;;;;;;11.30;9.60;;;;;;;11.20;100.00;101007.06;5097725;28;20360;-36
2023/03/18 07:48:05;;;;;;;10.98;9.73;;;;;;;11.24;100.00;101000.94;5097187;28;20028;-37
2023/03/18 07:50:30;;;;;;;10.07;9.07;;;;;;;11.21;100.00;101008.69;5097671;28;20103;-37
2023/03/18 07:52:56;;;;;;;11.63;9.53;;;;;;;11.26;100.00;101020.47;5096826;28;20032;-38
2023/03/18 07:55:21;;;;;;;11.50;9.10;;;;;;;11.26;100.00;101014.25;5097641;28;20371;-36
2023/03/18 07:57:46;;;;;;;13.52;9.30;;;;;;;11.32;100.00;101026.84;5097267;28;20433;-36
2023/03/18 08:00:14;;;;;;;13.40;10.30;;;;;;;11.39;100.00;101026.78;5097268;28;20030;-36
2023/03/18 08:02:40;;;;;;;10.63;9.45;;;;;;;11.39;100.00;101019.47;5096715;28;20385;-36
2023/03/18 08:05:06;;;;;;;9.93;8.82;;;;;;;11.51;100.00;101033.84;5097449;28;20367;-37
2023/03/18 08:07:32;;;;;;;10.10;8.63;;;;;;;11.59;100.00;101019.16;5096718;28;20020;-37
2023/03/18 08:09:58;;;;;;;10.00;8.90;;;;;;;11.67;100.00;101024.22;5096738;28;20426;-37
2023/03/18 08:12:24;;;;;;;9.85;8.90;;;;;;;11.72;100.00;101018.13;5096690;28;20060;-37
2023/03/18 08:14:49;;;;;;;9.43;8.43;;;;;;;11.70;100.00;101002.06;5096618;28;20499;-37
2023/03/18 08:17:15;;;;;;;9.20;8.27;;;;;;;11.77;100.00;101004.69;5096606;28;20072;-37
2023/03/18 08:19:40;;;;;;;11.50;8.37;;;;;;;11.88;100.00;101006.59;5096822;28;20273;-36
2023/03/18 08:22:07;;;;;;;8.77;7.82;;;;;;;11.95;100.00;101003.75;5096083;28;20282;-37
2023/03/18 08:24:32;;;;;;;8.60;7.57;;;;;;;12.04;100.00;101005.06;5096413;28;20161;-37
2023/03/18 08:26:58;;;;;;;7.85;7.00;;;;;;;12.09;100.00;100997.88;5096080;28;20111;-37
2023/03/18 08:29:23;;;;;;;8.47;6.97;;;;;;;12.13;100.00;100991.97;5096135;28;20035;-37
2023/03/18 08:31:48;;;;;;;7.80;7.00;;;;;;;12.24;100.00;101004.69;5096498;28;20306;-37
2023/03/18 08:34:14;;;;;;;7.90;6.27;;;;;;;12.31;100.00;100997.25;5096395;28;20638;-37
2023/03/18 08:36:40;;;;;;;6.78;6.07;;;;;;;12.42;100.00;100995.59;5095910;28;20024;-37
2023/03/18 08:39:07;;;;;;;6.32;5.40;;;;;;;12.50;100.00;101006.06;5096014;28;20111;-37
2023/03/18 08:41:33;;;;;;;7.03;5.20;;;;;;;12.59;100.00;101005.47;5096387;28;20362;-37
2023/03/18 08:43:59;;;;;;;6.35;5.38;;;;;;;12.69;100.00;101009.41;5096059;28;20107;-37
2023/03/18 08:46:25;;;;;;;6.53;4.80;;;;;;;12.79;100.00;101007.75;5096580;28;20111;-37
2023/03/18 08:48:53;;;;;;;7.38;5.40;;;;;;;12.83;100.00;101003.50;5096515;28;20162;-36
2023/03/18 08:51:18;;;;;;;6.07;4.78;;;;;;;12.93;100.00;101013.69;5095882;28;20488;-37
2023/03/18 08:53:44;;;;;;;7.32;5.40;;;;;;;13.01;100.00;101010.59;5096113;28;20035;-37
2023/03/18 08:56:10;;;;;;;7.05;5.68;;;;;;;13.07;100.00;101006.91;5096189;28;20028;-37
2023/03/18 08:58:35;;;;;;;6.18;4.55;;;;;;;13.09;100.00;101014.81;5095729;28;20028;-37
2023/03/18 09:01:02;;;;;;;13.30;5.47;;;;;;;13.12;100.00;101020.56;5095565;28;20213;-37
2023/03/18 09:03:27;;;;;;;10.55;4.55;;;;;;;13.18;100.00;101007.13;5096671;28;20131;-37
2023/03/18 09:05:54;;;;;;;6.22;5.10;;;;;;;13.33;100.00;101016.38;5095990;28;20432;-37
2023/03/18 09:08:20;;;;;;;5.45;4.60;;;;;;;13.38;100.00;101026.50;5095620;28;20438;-37
2023/03/18 09:10:47;;;;;;;5.43;4.25;;;;;;;13.44;100.00;101020.09;5095575;28;20480;-37
2023/03/18 09:13:12;;;;;;;5.38;4.85;;;;;;;13.35;100.00;101006.06;5095502;28;20032;-36
2023/03/18 09:15:39;;;;;;;6.03;4.93;;;;;;;13.47;100.00;101021.47;5095786;28;20036;-37
2023/03/18 09:18:05;;;;;;;4.80;4.38;;;;;;;13.54;100.00;101025.69;5095141;28;20061;-37
2023/03/18 09:20:32;;;;;;;5.65;4.72;;;;;;;13.46;100.00;101004.34;5095971;28;20028;-37
2023/03/18 09:22:58;;;;;;;5.32;4.53;;;;;;;13.52;100.00;101016.16;5095210;28;20032;-37
2023/03/18 09:25:23;;;;;;;6.70;5.25;;;;;;;13.58;100.00;101029.56;5095829;28;20027;-36
2023/03/18 09:27:49;;;;;;;5.90;4.80;;;;;;;13.53;100.00;101034.09;5095196;28;20376;-36
2023/03/18 09:30:14;;;;;;;5.72;4.85;;;;;;;13.50;100.00;101034.56;5095785;28;20165;-35
2023/03/18 09:32:40;;;;;;;7.18;4.55;;;;;;;13.43;100.00;101034.75;5095696;28;20467;-36
2023/03/18 09:35:06;;;;;;;6.25;4.47;;;;;;;13.42;100.00;101033.09;5094825;28;20039;-36
2023/03/18 09:37:32;;;;;;;4.68;4.15;;;;;;;13.37;100.00;101031.13;5095007;28;20028;-36
2023/03/18 09:39:58;;;;;;;5.50;4.13;;;;;;;13.38;100.00;101032.75;5095425;28;20114;-36
2023/03/18 09:42:48;;;;;;;7.10;4.68;;;;;;;13.43;100.00;101037.47;5095413;28;20101;-36
2023/03/18 09:45:23;;;;;;;6.45;4.75;;;;;;;13.55;100.00;101037.38;5094586;28;20028;-36
2023/03/18 09:48:03;;;;;;;5.28;4.18;;;;;;;13.64;100.00;101038.63;5095374;28;20406;-36
2023/03/18 09:50:38;;;;;;;5.70;4.75;;;;;;;13.73;100.00;101028.19;5095541;28;20024;-36
2023/03/18 09:53:42;;;;;;;4.93;4.10;;;;;;;13.89;100.00;101027.34;5094781;28;20036;-37
2023/03/18 09:56:15;;;;;;;6.78;4.20;;;;;;;14.14;100.00;101032.31;5094552;28;20028;-36
2023/03/18 09:59:02;;;;;;;5.57;4.20;;;;;;;14.25;100.00;101036.00;5094275;28;20032;-37
2023/03/18 10:01:30;;;;;;;4.93;4.03;;;;;;;14.34;100.00;101035.31;5094463;28;20038;-36
2023/03/18 10:04:10;;;;;;;4.10;3.70;;;;;;;14.50;100.00;101041.84;5094324;28;20399;-36
2023/03/18 10:06:37;;;;;;;5.78;3.92;;;;;;;14.78;100.00;101029.94;5094793;28;20375;-36
2023/03/18 10:09:13;;;;;;;5.00;3.47;;;;;;;14.86;99.99;101025.94;5094448;28;20028;-37
2023/03/18 10:12:06;;;;;;;4.75;3.40;;;;;;;15.01;100.00;101022.56;5092310;28;20499;-36
2023/03/18 10:14:42;;;;;;;5.38;3.63;;;;;;;15.02;100.00;101022.28;5095161;28;20024;-37
2023/03/18 10:17:24;;;;;;;4.47;3.50;;;;;;;15.03;98.63;101020.41;5094322;28;20027;-37
2023/03/18 10:19:58;;;;;;;4.28;3.10;;;;;;;15.12;96.45;101027.03;5094556;28;20096;-36
2023/03/18 10:22:36;;;;;;;4.35;2.60;;;;;;;15.30;96.82;101029.41;5094374;28;20027;-36
2023/03/18 10:25:45;;;;;;;5.05;2.60;;;;;;;15.47;93.55;101029.31;5095037;28;20524;-36
2023/03/18 10:28:40;;;;;;;4.00;2.22;;;;;;;15.52;92.72;101014.88;4991844;28;20050;-36
2023/03/18 10:31:14;;;;;;;3.50;2.20;;;;;;;15.74;91.54;101026.53;5007742;28;20042;-36
2023/03/18 10:33:50;;;;;;;4.53;2.17;;;;;;;15.83;89.53;101022.25;5067674;28;20462;-36
2023/03/18 10:36:22;;;;;;;3.03;2.20;;;;;;;15.98;90.06;101027.00;5093705;28;20027;-36
2023/03/18 10:38:50;;;;;;;3.38;2.30;;;;;;;16.12;89.60;101025.44;5093269;28;20031;-36
2023/03/18 10:41:19;;;;;;;6.40;3.28;;;;;;;16.13;90.60;101031.72;5102273;28;20020;-36
2023/03/18 10:43:48;;;;;;;4.70;2.38;;;;;;;15.93;85.77;101032.41;5114171;28;20036;-36
2023/03/18 10:46:15;;;;;;;3.67;2.10;;;;;;;15.90;86.97;101019.28;5103932;28;20032;-36
2023/03/18 10:48:53;;;;;;;4.43;2.13;;;;;;;16.01;87.67;101023.75;5091358;28;20426;-36
2023/03/18 10:51:48;;;;;;;5.13;1.92;;;;;;;16.05;88.87;101022.13;5092955;28;20036;-36
2023/03/18 10:54:26;;;;;;;3.28;2.10;;;;;;;15.97;88.72;101019.91;5092911;28;20115;-36
2023/03/18 10:56:52;;;;;;;3.97;2.03;;;;;;;15.78;88.93;101005.84;5093816;28;20031;-36
2023/03/18 10:59:20;;;;;;;3.17;1.90;;;;;;;15.68;88.70;101011.22;5093594;28;20368;-36
2023/03/18 11:02:21;;;;;;;4.00;1.73;;;;;;;15.70;89.98;101019.97;5094352;28;20118;-36
2023/03/18 11:04:50;;;;;;;3.60;2.00;;;;;;;15.59;88.74;101021.75;5093537;28;20040;-36
2023/03/18 11:07:24;;;;;;;3.95;1.80;;;;;;;15.46;88.85;101012.09;5092577;28;20027;-36
2023/03/18 11:09:50;;;;;;;4.22;1.80;;;;;;;15.33;89.72;101014.44;5094352;28;20460;-36
2023/03/18 11:12:25;;;;;;;3.25;1.75;;;;;;;15.29;91.03;101007.88;5094403;28;20074;-36
2023/03/18 11:14:53;;;;;;;4.88;1.90;;;;;;;15.25;90.85;101014.91;5093775;28;20131;-36
2023/03/18 11:17:26;;;;;;;4.40;2.00;;;;;;;15.15;91.42;101011.00;5093327;28;20060;-36
2023/03/18 11:20:23;;;;;;;4.72;2.08;;;;;;;15.13;91.09;101005.00;5093665;28;20039;-36